sensor_id;sensor_type;location;lat;lon;timestamp;P1;durP1;ratioP1;P2;durP2;ratioP2
18857;SDS011;9558;50.178;8.370;2022-11-20T00:00:01;8.00;;;4.55;;
18857;SDS011;9558;50.178;8.370;2022-11-20T00:02:27;6.40;;;3.85;;
18857;SDS011;9558;50.178;8.370;2022-11-20T00:04:54;11.55;;;5.05;;
18857;SDS011;9558;50.178;8.370;2022-11-20T00:07:21;10.25;;;5.00;;
18857;SDS011;9558;50.178;8.370;2022-11-20T00:09:48;10.73;;;4.72;;
18857;SDS011;9558;50.178;8.370;2022-11-20T00:12:14;11.05;;;3.92;;
18857;SDS011;9558;50.178;8.370;2022-11-20T00:14:41;9.25;;;4.03;;
18857;SDS011;9558;50.178;8.370;2022-11-20T00:17:07;9.55;;;3.50;;
18857;SDS011;9558;50.178;8.370;2022-11-20T00:19:34;15.13;;;4.53;;
18857;SDS011;9558;50.178;8.370;2022-11-20T00:22:00;7.63;;;3.08;;
18857;SDS011;9558;50.178;8.370;2022-11-20T00:24:28;5.95;;;3.13;;
18857;SDS011;9558;50.178;8.370;2022-11-20T00:29:21;4.82;;;2.85;;
18857;SDS011;9558;50.178;8.370;2022-11-20T00:31:47;6.57;;;4.35;;
18857;SDS011;9558;50.178;8.370;2022-11-20T00:34:14;7.72;;;3.90;;
18857;SDS011;9558;50.178;8.370;2022-11-20T00:36:40;5.80;;;3.60;;
18857;SDS011;9558;50.178;8.370;2022-11-20T00:39:07;7.40;;;3.13;;
18857;SDS011;9558;50.178;8.370;2022-11-20T00:41:35;10.93;;;4.05;;
18857;SDS011;9558;50.178;8.370;2022-11-20T00:46:27;5.90;;;3.13;;
18857;SDS011;9558;50.178;8.370;2022-11-20T00:48:54;7.53;;;3.80;;
18857;SDS011;9558;50.178;8.370;2022-11-20T00:51:21;5.13;;;3.22;;
18857;SDS011;9558;50.178;8.370;2022-11-20T00:53:49;4.93;;;2.90;;
18857;SDS011;9558;50.178;8.370;2022-11-20T00:56:17;5.38;;;3.65;;
18857;SDS011;9558;50.178;8.370;2022-11-20T00:58:46;7.47;;;4.82;;
18857;SDS011;9558;50.178;8.370;2022-11-20T01:01:15;7.95;;;4.38;;
18857;SDS011;9558;50.178;8.370;2022-11-20T01:03:44;5.20;;;3.42;;
18857;SDS011;9558;50.178;8.370;2022-11-20T01:06:12;11.32;;;3.70;;
18857;SDS011;9558;50.178;8.370;2022-11-20T01:08:41;6.97;;;4.32;;
18857;SDS011;9558;50.178;8.370;2022-11-20T01:11:09;7.47;;;2.75;;
18857;SDS011;9558;50.178;8.370;2022-11-20T01:13:37;6.82;;;3.10;;
18857;SDS011;9558;50.178;8.370;2022-11-20T01:16:06;7.38;;;4.13;;
18857;SDS011;9558;50.178;8.370;2022-11-20T01:18:34;8.60;;;4.35;;
18857;SDS011;9558;50.178;8.370;2022-11-20T01:21:02;7.25;;;3.72;;
18857;SDS011;9558;50.178;8.370;2022-11-20T01:23:30;9.02;;;5.28;;
18857;SDS011;9558;50.178;8.370;2022-11-20T01:25:59;7.53;;;3.85;;
18857;SDS011;9558;50.178;8.370;2022-11-20T01:28:26;12.07;;;4.10;;
18857;SDS011;9558;50.178;8.370;2022-11-20T01:30:53;8.43;;;3.72;;
18857;SDS011;9558;50.178;8.370;2022-11-20T01:33:20;9.00;;;3.67;;
18857;SDS011;9558;50.178;8.370;2022-11-20T01:38:14;8.88;;;3.75;;
18857;SDS011;9558;50.178;8.370;2022-11-20T01:40:41;7.20;;;4.32;;
18857;SDS011;9558;50.178;8.370;2022-11-20T01:43:10;10.90;;;4.78;;
18857;SDS011;9558;50.178;8.370;2022-11-20T01:46:01;5.35;;;3.88;;
18857;SDS011;9558;50.178;8.370;2022-11-20T01:48:40;8.43;;;4.50;;
18857;SDS011;9558;50.178;8.370;2022-11-20T01:51:12;7.65;;;5.00;;
18857;SDS011;9558;50.178;8.370;2022-11-20T01:53:43;7.05;;;2.80;;
18857;SDS011;9558;50.178;8.370;2022-11-20T01:56:10;11.20;;;4.75;;
18857;SDS011;9558;50.178;8.370;2022-11-20T01:58:39;11.98;;;5.05;;
18857;SDS011;9558;50.178;8.370;2022-11-20T02:01:10;7.97;;;3.85;;
18857;SDS011;9558;50.178;8.370;2022-11-20T02:06:08;7.28;;;3.70;;
18857;SDS011;9558;50.178;8.370;2022-11-20T02:08:38;9.82;;;3.15;;
18857;SDS011;9558;50.178;8.370;2022-11-20T02:11:05;6.43;;;3.25;;
18857;SDS011;9558;50.178;8.370;2022-11-20T02:13:32;10.45;;;4.03;;
18857;SDS011;9558;50.178;8.370;2022-11-20T02:16:11;8.60;;;3.47;;
18857;SDS011;9558;50.178;8.370;2022-11-20T02:18:42;13.07;;;4.78;;
18857;SDS011;9558;50.178;8.370;2022-11-20T02:21:13;9.25;;;3.95;;
18857;SDS011;9558;50.178;8.370;2022-11-20T02:26:39;6.72;;;3.65;;
18857;SDS011;9558;50.178;8.370;2022-11-20T02:29:10;8.45;;;3.58;;
18857;SDS011;9558;50.178;8.370;2022-11-20T02:31:37;6.20;;;2.88;;
18857;SDS011;9558;50.178;8.370;2022-11-20T02:34:06;5.22;;;3.05;;
18857;SDS011;9558;50.178;8.370;2022-11-20T02:36:33;7.50;;;4.75;;
18857;SDS011;9558;50.178;8.370;2022-11-20T02:39:01;8.95;;;4.60;;
18857;SDS011;9558;50.178;8.370;2022-11-20T02:41:34;8.68;;;4.68;;
18857;SDS011;9558;50.178;8.370;2022-11-20T02:44:02;10.02;;;4.25;;
18857;SDS011;9558;50.178;8.370;2022-11-20T02:46:29;9.18;;;4.50;;
18857;SDS011;9558;50.178;8.370;2022-11-20T02:48:56;7.75;;;3.10;;
18857;SDS011;9558;50.178;8.370;2022-11-20T02:51:23;7.90;;;3.42;;
18857;SDS011;9558;50.178;8.370;2022-11-20T02:53:49;7.72;;;4.07;;
18857;SDS011;9558;50.178;8.370;2022-11-20T02:56:16;11.55;;;4.53;;
18857;SDS011;9558;50.178;8.370;2022-11-20T02:58:44;7.10;;;3.28;;
18857;SDS011;9558;50.178;8.370;2022-11-20T03:01:10;4.75;;;2.90;;
18857;SDS011;9558;50.178;8.370;2022-11-20T03:03:37;13.18;;;3.58;;
18857;SDS011;9558;50.178;8.370;2022-11-20T03:06:03;9.38;;;3.22;;
18857;SDS011;9558;50.178;8.370;2022-11-20T03:08:30;9.00;;;3.17;;
18857;SDS011;9558;50.178;8.370;2022-11-20T03:10:57;9.27;;;3.92;;
18857;SDS011;9558;50.178;8.370;2022-11-20T03:13:28;6.93;;;4.07;;
18857;SDS011;9558;50.178;8.370;2022-11-20T03:15:56;9.43;;;3.97;;
18857;SDS011;9558;50.178;8.370;2022-11-20T03:20:56;9.63;;;2.70;;
18857;SDS011;9558;50.178;8.370;2022-11-20T03:23:23;4.07;;;2.83;;
18857;SDS011;9558;50.178;8.370;2022-11-20T03:25:49;13.75;;;4.03;;
18857;SDS011;9558;50.178;8.370;2022-11-20T03:28:16;10.30;;;4.32;;
18857;SDS011;9558;50.178;8.370;2022-11-20T03:30:42;9.35;;;4.00;;
18857;SDS011;9558;50.178;8.370;2022-11-20T03:33:10;12.30;;;4.25;;
18857;SDS011;9558;50.178;8.370;2022-11-20T03:38:03;10.88;;;3.97;;
18857;SDS011;9558;50.178;8.370;2022-11-20T03:40:29;7.05;;;4.40;;
18857;SDS011;9558;50.178;8.370;2022-11-20T03:42:56;5.55;;;2.30;;
18857;SDS011;9558;50.178;8.370;2022-11-20T03:45:22;6.78;;;3.90;;
18857;SDS011;9558;50.178;8.370;2022-11-20T03:47:49;11.50;;;3.03;;
18857;SDS011;9558;50.178;8.370;2022-11-20T03:50:17;7.45;;;3.63;;
18857;SDS011;9558;50.178;8.370;2022-11-20T03:52:43;3.88;;;2.42;;
18857;SDS011;9558;50.178;8.370;2022-11-20T03:55:10;4.20;;;3.55;;
18857;SDS011;9558;50.178;8.370;2022-11-20T03:57:36;10.48;;;5.00;;
18857;SDS011;9558;50.178;8.370;2022-11-20T04:00:03;14.57;;;4.78;;
18857;SDS011;9558;50.178;8.370;2022-11-20T04:02:30;13.25;;;4.20;;
18857;SDS011;9558;50.178;8.370;2022-11-20T04:04:56;2.60;;;2.35;;
18857;SDS011;9558;50.178;8.370;2022-11-20T04:07:24;8.02;;;4.93;;
18857;SDS011;9558;50.178;8.370;2022-11-20T04:12:17;3.67;;;3.03;;
18857;SDS011;9558;50.178;8.370;2022-11-20T04:14:43;3.53;;;2.67;;
18857;SDS011;9558;50.178;8.370;2022-11-20T04:17:10;8.32;;;4.20;;
18857;SDS011;9558;50.178;8.370;2022-11-20T04:19:36;8.50;;;2.92;;
18857;SDS011;9558;50.178;8.370;2022-11-20T04:22:03;9.60;;;4.10;;
18857;SDS011;9558;50.178;8.370;2022-11-20T04:24:31;6.43;;;4.28;;
18857;SDS011;9558;50.178;8.370;2022-11-20T04:29:23;5.25;;;3.30;;
18857;SDS011;9558;50.178;8.370;2022-11-20T04:31:50;8.05;;;4.53;;
18857;SDS011;9558;50.178;8.370;2022-11-20T04:34:16;7.25;;;4.80;;
18857;SDS011;9558;50.178;8.370;2022-11-20T04:36:43;5.35;;;2.53;;
18857;SDS011;9558;50.178;8.370;2022-11-20T04:39:13;8.10;;;4.97;;
18857;SDS011;9558;50.178;8.370;2022-11-20T04:41:42;5.60;;;3.42;;
18857;SDS011;9558;50.178;8.370;2022-11-20T04:44:09;12.20;;;4.88;;
18857;SDS011;9558;50.178;8.370;2022-11-20T04:46:36;9.50;;;4.57;;
18857;SDS011;9558;50.178;8.370;2022-11-20T04:49:04;12.25;;;6.13;;
18857;SDS011;9558;50.178;8.370;2022-11-20T04:51:31;10.70;;;5.15;;
18857;SDS011;9558;50.178;8.370;2022-11-20T04:53:58;10.52;;;5.15;;
18857;SDS011;9558;50.178;8.370;2022-11-20T04:56:25;8.75;;;4.13;;
18857;SDS011;9558;50.178;8.370;2022-11-20T04:58:52;8.10;;;4.40;;
18857;SDS011;9558;50.178;8.370;2022-11-20T05:01:20;4.10;;;3.22;;
18857;SDS011;9558;50.178;8.370;2022-11-20T05:03:48;5.13;;;3.35;;
18857;SDS011;9558;50.178;8.370;2022-11-20T05:06:16;7.85;;;3.95;;
18857;SDS011;9558;50.178;8.370;2022-11-20T05:08:44;9.48;;;4.82;;
18857;SDS011;9558;50.178;8.370;2022-11-20T05:11:11;8.20;;;3.05;;
18857;SDS011;9558;50.178;8.370;2022-11-20T05:16:07;5.00;;;3.78;;
18857;SDS011;9558;50.178;8.370;2022-11-20T05:18:34;3.85;;;2.45;;
18857;SDS011;9558;50.178;8.370;2022-11-20T05:21:01;7.20;;;3.72;;
18857;SDS011;9558;50.178;8.370;2022-11-20T05:23:29;4.82;;;3.08;;
18857;SDS011;9558;50.178;8.370;2022-11-20T05:25:56;7.95;;;4.53;;
18857;SDS011;9558;50.178;8.370;2022-11-20T05:28:24;10.48;;;3.65;;
18857;SDS011;9558;50.178;8.370;2022-11-20T05:30:51;9.48;;;4.75;;
18857;SDS011;9558;50.178;8.370;2022-11-20T05:33:19;10.82;;;4.45;;
18857;SDS011;9558;50.178;8.370;2022-11-20T05:35:46;7.72;;;3.67;;
18857;SDS011;9558;50.178;8.370;2022-11-20T05:38:13;8.32;;;4.47;;
18857;SDS011;9558;50.178;8.370;2022-11-20T05:40:39;13.02;;;4.75;;
18857;SDS011;9558;50.178;8.370;2022-11-20T05:43:06;8.13;;;4.45;;
18857;SDS011;9558;50.178;8.370;2022-11-20T05:45:32;12.88;;;3.67;;
18857;SDS011;9558;50.178;8.370;2022-11-20T05:47:59;9.88;;;3.60;;
18857;SDS011;9558;50.178;8.370;2022-11-20T05:50:27;7.35;;;3.97;;
18857;SDS011;9558;50.178;8.370;2022-11-20T05:52:54;12.07;;;3.42;;
18857;SDS011;9558;50.178;8.370;2022-11-20T05:55:21;8.32;;;4.20;;
18857;SDS011;9558;50.178;8.370;2022-11-20T05:57:47;4.13;;;2.92;;
18857;SDS011;9558;50.178;8.370;2022-11-20T06:00:14;4.65;;;2.55;;
18857;SDS011;9558;50.178;8.370;2022-11-20T06:02:41;7.03;;;4.15;;
18857;SDS011;9558;50.178;8.370;2022-11-20T06:05:08;8.38;;;3.85;;
18857;SDS011;9558;50.178;8.370;2022-11-20T06:07:36;9.32;;;4.20;;
18857;SDS011;9558;50.178;8.370;2022-11-20T06:12:30;3.35;;;3.05;;
18857;SDS011;9558;50.178;8.370;2022-11-20T06:14:57;9.02;;;5.38;;
18857;SDS011;9558;50.178;8.370;2022-11-20T06:17:24;5.90;;;3.97;;
18857;SDS011;9558;50.178;8.370;2022-11-20T06:19:50;12.30;;;5.55;;
18857;SDS011;9558;50.178;8.370;2022-11-20T06:22:17;6.97;;;4.75;;
18857;SDS011;9558;50.178;8.370;2022-11-20T06:24:45;5.75;;;3.65;;
18857;SDS011;9558;50.178;8.370;2022-11-20T06:29:37;5.28;;;2.63;;
18857;SDS011;9558;50.178;8.370;2022-11-20T06:32:04;11.57;;;4.28;;
18857;SDS011;9558;50.178;8.370;2022-11-20T06:34:30;6.40;;;4.03;;
18857;SDS011;9558;50.178;8.370;2022-11-20T06:36:57;11.75;;;4.55;;
18857;SDS011;9558;50.178;8.370;2022-11-20T06:39:23;6.68;;;3.92;;
18857;SDS011;9558;50.178;8.370;2022-11-20T06:41:51;16.63;;;4.10;;
18857;SDS011;9558;50.178;8.370;2022-11-20T06:46:44;6.75;;;3.80;;
18857;SDS011;9558;50.178;8.370;2022-11-20T06:49:10;6.30;;;3.55;;
18857;SDS011;9558;50.178;8.370;2022-11-20T06:51:37;6.22;;;4.07;;
18857;SDS011;9558;50.178;8.370;2022-11-20T06:54:03;6.20;;;2.80;;
18857;SDS011;9558;50.178;8.370;2022-11-20T06:56:30;3.40;;;2.78;;
18857;SDS011;9558;50.178;8.370;2022-11-20T06:58:58;8.88;;;3.75;;
18857;SDS011;9558;50.178;8.370;2022-11-20T07:01:24;10.48;;;4.15;;
18857;SDS011;9558;50.178;8.370;2022-11-20T07:03:51;8.18;;;3.72;;
18857;SDS011;9558;50.178;8.370;2022-11-20T07:06:17;7.57;;;3.42;;
18857;SDS011;9558;50.178;8.370;2022-11-20T07:08:43;6.25;;;2.75;;
18857;SDS011;9558;50.178;8.370;2022-11-20T07:11:12;1.98;;;1.58;;
18857;SDS011;9558;50.178;8.370;2022-11-20T07:13:38;5.45;;;2.63;;
18857;SDS011;9558;50.178;8.370;2022-11-20T07:16:07;7.97;;;3.42;;
18857;SDS011;9558;50.178;8.370;2022-11-20T07:18:34;8.50;;;3.17;;
18857;SDS011;9558;50.178;8.370;2022-11-20T07:21:01;8.20;;;3.50;;
18857;SDS011;9558;50.178;8.370;2022-11-20T07:23:27;5.75;;;3.85;;
18857;SDS011;9558;50.178;8.370;2022-11-20T07:25:54;9.25;;;4.35;;
18857;SDS011;9558;50.178;8.370;2022-11-20T07:28:20;7.88;;;3.60;;
18857;SDS011;9558;50.178;8.370;2022-11-20T07:30:49;10.43;;;5.00;;
18857;SDS011;9558;50.178;8.370;2022-11-20T07:33:17;10.13;;;4.43;;
18857;SDS011;9558;50.178;8.370;2022-11-20T07:35:44;6.80;;;4.70;;
18857;SDS011;9558;50.178;8.370;2022-11-20T07:38:11;5.45;;;3.65;;
18857;SDS011;9558;50.178;8.370;2022-11-20T07:40:37;9.85;;;3.08;;
18857;SDS011;9558;50.178;8.370;2022-11-20T07:43:04;9.57;;;4.82;;
18857;SDS011;9558;50.178;8.370;2022-11-20T07:45:30;7.72;;;3.80;;
18857;SDS011;9558;50.178;8.370;2022-11-20T07:47:57;3.83;;;2.05;;
18857;SDS011;9558;50.178;8.370;2022-11-20T07:50:24;7.07;;;3.00;;
18857;SDS011;9558;50.178;8.370;2022-11-20T07:52:51;8.48;;;3.83;;
18857;SDS011;9558;50.178;8.370;2022-11-20T07:55:18;7.05;;;2.70;;
18857;SDS011;9558;50.178;8.370;2022-11-20T07:57:44;4.57;;;2.92;;
18857;SDS011;9558;50.178;8.370;2022-11-20T08:00:11;4.35;;;2.67;;
18857;SDS011;9558;50.178;8.370;2022-11-20T08:02:39;7.68;;;4.28;;
18857;SDS011;9558;50.178;8.370;2022-11-20T08:05:06;4.28;;;2.80;;
18857;SDS011;9558;50.178;8.370;2022-11-20T08:07:38;7.75;;;2.88;;
18857;SDS011;9558;50.178;8.370;2022-11-20T08:10:05;10.70;;;3.70;;
18857;SDS011;9558;50.178;8.370;2022-11-20T08:15:17;3.97;;;2.63;;
18857;SDS011;9558;50.178;8.370;2022-11-20T08:17:43;2.53;;;2.28;;
18857;SDS011;9558;50.178;8.370;2022-11-20T08:20:10;10.13;;;3.92;;
18857;SDS011;9558;50.178;8.370;2022-11-20T08:22:38;4.18;;;2.85;;
18857;SDS011;9558;50.178;8.370;2022-11-20T08:27:31;3.67;;;2.05;;
18857;SDS011;9558;50.178;8.370;2022-11-20T08:29:58;8.15;;;2.60;;
18857;SDS011;9558;50.178;8.370;2022-11-20T08:32:24;3.90;;;3.20;;
18857;SDS011;9558;50.178;8.370;2022-11-20T08:34:51;4.75;;;2.42;;
18857;SDS011;9558;50.178;8.370;2022-11-20T08:37:17;3.55;;;2.45;;
18857;SDS011;9558;50.178;8.370;2022-11-20T08:39:45;9.95;;;3.03;;
18857;SDS011;9558;50.178;8.370;2022-11-20T08:42:12;4.45;;;2.92;;
18857;SDS011;9558;50.178;8.370;2022-11-20T08:44:38;9.23;;;4.28;;
18857;SDS011;9558;50.178;8.370;2022-11-20T08:47:04;7.10;;;3.83;;
18857;SDS011;9558;50.178;8.370;2022-11-20T08:49:31;6.32;;;3.25;;
18857;SDS011;9558;50.178;8.370;2022-11-20T08:51:57;7.63;;;4.18;;
18857;SDS011;9558;50.178;8.370;2022-11-20T08:54:24;8.93;;;3.85;;
18857;SDS011;9558;50.178;8.370;2022-11-20T08:56:52;10.23;;;5.40;;
18857;SDS011;9558;50.178;8.370;2022-11-20T09:01:44;3.20;;;2.30;;
18857;SDS011;9558;50.178;8.370;2022-11-20T09:04:11;8.30;;;3.83;;
18857;SDS011;9558;50.178;8.370;2022-11-20T09:06:39;7.82;;;3.35;;
18857;SDS011;9558;50.178;8.370;2022-11-20T09:09:05;6.90;;;2.72;;
18857;SDS011;9558;50.178;8.370;2022-11-20T09:11:32;7.28;;;3.33;;
18857;SDS011;9558;50.178;8.370;2022-11-20T09:16:27;4.22;;;2.58;;
18857;SDS011;9558;50.178;8.370;2022-11-20T09:18:54;3.70;;;2.30;;
18857;SDS011;9558;50.178;8.370;2022-11-20T09:21:20;9.30;;;3.10;;
18857;SDS011;9558;50.178;8.370;2022-11-20T09:23:47;2.75;;;1.85;;
18857;SDS011;9558;50.178;8.370;2022-11-20T09:26:14;7.13;;;2.80;;
18857;SDS011;9558;50.178;8.370;2022-11-20T09:28:40;7.57;;;3.75;;
18857;SDS011;9558;50.178;8.370;2022-11-20T09:31:09;5.22;;;3.08;;
18857;SDS011;9558;50.178;8.370;2022-11-20T09:33:43;5.85;;;3.60;;
18857;SDS011;9558;50.178;8.370;2022-11-20T09:36:10;4.93;;;1.98;;
18857;SDS011;9558;50.178;8.370;2022-11-20T09:38:36;4.65;;;2.90;;
18857;SDS011;9558;50.178;8.370;2022-11-20T09:41:03;6.72;;;2.97;;
18857;SDS011;9558;50.178;8.370;2022-11-20T09:43:36;5.43;;;3.20;;
18857;SDS011;9558;50.178;8.370;2022-11-20T09:46:12;10.85;;;4.78;;
18857;SDS011;9558;50.178;8.370;2022-11-20T09:48:46;5.78;;;3.22;;
18857;SDS011;9558;50.178;8.370;2022-11-20T09:51:25;3.95;;;2.63;;
18857;SDS011;9558;50.178;8.370;2022-11-20T09:54:05;4.88;;;2.80;;
18857;SDS011;9558;50.178;8.370;2022-11-20T09:56:40;4.45;;;2.63;;
18857;SDS011;9558;50.178;8.370;2022-11-20T09:59:14;6.68;;;3.40;;
18857;SDS011;9558;50.178;8.370;2022-11-20T10:01:53;6.63;;;3.22;;
18857;SDS011;9558;50.178;8.370;2022-11-20T10:04:21;5.28;;;3.50;;
18857;SDS011;9558;50.178;8.370;2022-11-20T10:06:50;5.50;;;3.10;;
18857;SDS011;9558;50.178;8.370;2022-11-20T10:09:22;2.53;;;1.65;;
18857;SDS011;9558;50.178;8.370;2022-11-20T10:11:59;5.82;;;2.53;;
18857;SDS011;9558;50.178;8.370;2022-11-20T10:14:35;6.60;;;3.00;;
18857;SDS011;9558;50.178;8.370;2022-11-20T10:17:16;15.40;;;3.70;;
18857;SDS011;9558;50.178;8.370;2022-11-20T10:19:56;3.47;;;2.97;;
18857;SDS011;9558;50.178;8.370;2022-11-20T10:22:39;10.35;;;3.45;;
18857;SDS011;9558;50.178;8.370;2022-11-20T10:25:13;9.52;;;4.15;;
18857;SDS011;9558;50.178;8.370;2022-11-20T10:30:42;8.18;;;3.00;;
18857;SDS011;9558;50.178;8.370;2022-11-20T10:33:13;5.18;;;2.90;;
18857;SDS011;9558;50.178;8.370;2022-11-20T10:35:43;4.97;;;2.55;;
18857;SDS011;9558;50.178;8.370;2022-11-20T10:38:16;7.13;;;3.60;;
18857;SDS011;9558;50.178;8.370;2022-11-20T10:40:48;6.38;;;2.58;;
18857;SDS011;9558;50.178;8.370;2022-11-20T10:43:18;2.53;;;2.30;;
18857;SDS011;9558;50.178;8.370;2022-11-20T10:45:51;6.80;;;3.58;;
18857;SDS011;9558;50.178;8.370;2022-11-20T10:48:24;7.00;;;2.55;;
18857;SDS011;9558;50.178;8.370;2022-11-20T10:50:58;4.30;;;2.83;;
18857;SDS011;9558;50.178;8.370;2022-11-20T10:53:42;7.75;;;3.05;;
18857;SDS011;9558;50.178;8.370;2022-11-20T10:56:16;5.80;;;2.50;;
18857;SDS011;9558;50.178;8.370;2022-11-20T10:58:48;7.28;;;2.67;;
18857;SDS011;9558;50.178;8.370;2022-11-20T11:01:39;5.55;;;2.97;;
18857;SDS011;9558;50.178;8.370;2022-11-20T11:04:13;4.57;;;2.35;;
18857;SDS011;9558;50.178;8.370;2022-11-20T11:06:49;11.68;;;2.20;;
18857;SDS011;9558;50.178;8.370;2022-11-20T11:09:19;6.97;;;3.50;;
18857;SDS011;9558;50.178;8.370;2022-11-20T11:11:53;5.40;;;2.88;;
18857;SDS011;9558;50.178;8.370;2022-11-20T11:14:20;5.70;;;2.90;;
18857;SDS011;9558;50.178;8.370;2022-11-20T11:16:50;3.75;;;2.65;;
18857;SDS011;9558;50.178;8.370;2022-11-20T11:19:19;4.75;;;2.33;;
18857;SDS011;9558;50.178;8.370;2022-11-20T11:21:46;3.35;;;1.92;;
18857;SDS011;9558;50.178;8.370;2022-11-20T11:24:18;4.25;;;2.67;;
18857;SDS011;9558;50.178;8.370;2022-11-20T11:26:51;3.47;;;2.17;;
18857;SDS011;9558;50.178;8.370;2022-11-20T11:29:21;4.68;;;2.75;;
18857;SDS011;9558;50.178;8.370;2022-11-20T11:31:47;8.02;;;3.72;;
18857;SDS011;9558;50.178;8.370;2022-11-20T11:34:14;5.93;;;2.97;;
18857;SDS011;9558;50.178;8.370;2022-11-20T11:36:47;4.07;;;2.38;;
18857;SDS011;9558;50.178;8.370;2022-11-20T11:39:21;3.33;;;1.73;;
18857;SDS011;9558;50.178;8.370;2022-11-20T11:41:48;3.38;;;2.05;;
18857;SDS011;9558;50.178;8.370;2022-11-20T11:44:17;6.63;;;2.40;;
18857;SDS011;9558;50.178;8.370;2022-11-20T11:47:02;3.88;;;1.65;;
18857;SDS011;9558;50.178;8.370;2022-11-20T11:49:31;2.85;;;2.38;;
18857;SDS011;9558;50.178;8.370;2022-11-20T11:52:03;3.55;;;1.48;;
18857;SDS011;9558;50.178;8.370;2022-11-20T11:54:35;2.30;;;0.98;;
18857;SDS011;9558;50.178;8.370;2022-11-20T11:57:09;4.28;;;2.08;;
18857;SDS011;9558;50.178;8.370;2022-11-20T11:59:44;2.63;;;1.83;;
18857;SDS011;9558;50.178;8.370;2022-11-20T12:02:24;1.23;;;1.15;;
18857;SDS011;9558;50.178;8.370;2022-11-20T12:04:57;1.92;;;1.73;;
18857;SDS011;9558;50.178;8.370;2022-11-20T12:07:32;2.97;;;1.58;;
18857;SDS011;9558;50.178;8.370;2022-11-20T12:10:08;3.22;;;1.30;;
18857;SDS011;9558;50.178;8.370;2022-11-20T12:12:42;2.90;;;1.13;;
18857;SDS011;9558;50.178;8.370;2022-11-20T12:15:11;2.20;;;0.98;;
18857;SDS011;9558;50.178;8.370;2022-11-20T12:17:42;3.10;;;1.45;;
18857;SDS011;9558;50.178;8.370;2022-11-20T12:20:11;1.52;;;1.23;;
18857;SDS011;9558;50.178;8.370;2022-11-20T12:22:43;1.27;;;0.95;;
18857;SDS011;9558;50.178;8.370;2022-11-20T12:25:19;4.10;;;1.70;;
18857;SDS011;9558;50.178;8.370;2022-11-20T12:27:55;2.72;;;1.60;;
18857;SDS011;9558;50.178;8.370;2022-11-20T12:30:50;5.47;;;2.63;;
18857;SDS011;9558;50.178;8.370;2022-11-20T12:33:42;3.72;;;2.53;;
18857;SDS011;9558;50.178;8.370;2022-11-20T12:36:23;3.83;;;2.10;;
18857;SDS011;9558;50.178;8.370;2022-11-20T12:39:07;5.50;;;3.00;;
18857;SDS011;9558;50.178;8.370;2022-11-20T12:41:48;6.40;;;3.88;;
18857;SDS011;9558;50.178;8.370;2022-11-20T12:44:54;12.45;;;4.68;;
18857;SDS011;9558;50.178;8.370;2022-11-20T12:47:48;26.55;;;10.95;;
18857;SDS011;9558;50.178;8.370;2022-11-20T12:50:40;11.63;;;6.40;;
18857;SDS011;9558;50.178;8.370;2022-11-20T12:53:18;33.83;;;12.45;;
18857;SDS011;9558;50.178;8.370;2022-11-20T12:55:56;12.00;;;5.47;;
18857;SDS011;9558;50.178;8.370;2022-11-20T12:58:31;13.95;;;4.45;;
18857;SDS011;9558;50.178;8.370;2022-11-20T13:01:12;10.30;;;4.47;;
18857;SDS011;9558;50.178;8.370;2022-11-20T13:04:02;7.90;;;3.53;;
18857;SDS011;9558;50.178;8.370;2022-11-20T13:06:38;6.00;;;3.90;;
18857;SDS011;9558;50.178;8.370;2022-11-20T13:09:06;7.13;;;2.97;;
18857;SDS011;9558;50.178;8.370;2022-11-20T13:11:40;8.40;;;3.95;;
18857;SDS011;9558;50.178;8.370;2022-11-20T13:14:18;5.78;;;3.90;;
18857;SDS011;9558;50.178;8.370;2022-11-20T13:16:53;6.18;;;4.40;;
18857;SDS011;9558;50.178;8.370;2022-11-20T13:19:24;6.80;;;4.38;;
18857;SDS011;9558;50.178;8.370;2022-11-20T13:21:52;12.30;;;5.25;;
18857;SDS011;9558;50.178;8.370;2022-11-20T13:24:23;8.15;;;4.13;;
18857;SDS011;9558;50.178;8.370;2022-11-20T13:27:04;11.02;;;5.55;;
18857;SDS011;9558;50.178;8.370;2022-11-20T13:29:44;5.28;;;3.53;;
18857;SDS011;9558;50.178;8.370;2022-11-20T13:32:13;10.63;;;5.13;;
18857;SDS011;9558;50.178;8.370;2022-11-20T13:34:50;8.95;;;3.67;;
18857;SDS011;9558;50.178;8.370;2022-11-20T13:37:24;9.77;;;4.53;;
18857;SDS011;9558;50.178;8.370;2022-11-20T13:42:22;7.70;;;5.07;;
18857;SDS011;9558;50.178;8.370;2022-11-20T13:44:54;12.93;;;6.05;;
18857;SDS011;9558;50.178;8.370;2022-11-20T13:47:21;9.57;;;5.55;;
18857;SDS011;9558;50.178;8.370;2022-11-20T13:49:50;12.63;;;4.65;;
18857;SDS011;9558;50.178;8.370;2022-11-20T13:52:32;12.10;;;5.10;;
18857;SDS011;9558;50.178;8.370;2022-11-20T13:55:12;7.60;;;5.05;;
18857;SDS011;9558;50.178;8.370;2022-11-20T13:57:56;7.97;;;4.22;;
18857;SDS011;9558;50.178;8.370;2022-11-20T14:00:31;11.23;;;5.22;;
18857;SDS011;9558;50.178;8.370;2022-11-20T14:02:59;10.93;;;4.80;;
18857;SDS011;9558;50.178;8.370;2022-11-20T14:05:34;25.25;;;10.77;;
18857;SDS011;9558;50.178;8.370;2022-11-20T14:08:03;17.40;;;8.15;;
18857;SDS011;9558;50.178;8.370;2022-11-20T14:10:31;14.27;;;6.95;;
18857;SDS011;9558;50.178;8.370;2022-11-20T14:13:09;22.08;;;6.05;;
18857;SDS011;9558;50.178;8.370;2022-11-20T14:15:36;15.18;;;7.95;;
18857;SDS011;9558;50.178;8.370;2022-11-20T14:18:11;10.80;;;5.75;;
18857;SDS011;9558;50.178;8.370;2022-11-20T14:20:39;14.73;;;6.82;;
18857;SDS011;9558;50.178;8.370;2022-11-20T14:23:08;10.65;;;4.82;;
18857;SDS011;9558;50.178;8.370;2022-11-20T14:25:36;15.90;;;7.10;;
18857;SDS011;9558;50.178;8.370;2022-11-20T14:28:04;12.40;;;5.35;;
18857;SDS011;9558;50.178;8.370;2022-11-20T14:30:36;13.63;;;5.97;;
18857;SDS011;9558;50.178;8.370;2022-11-20T14:33:09;9.52;;;5.95;;
18857;SDS011;9558;50.178;8.370;2022-11-20T14:35:40;13.15;;;5.78;;
18857;SDS011;9558;50.178;8.370;2022-11-20T14:38:11;17.50;;;6.05;;
18857;SDS011;9558;50.178;8.370;2022-11-20T14:40:40;9.77;;;4.65;;
18857;SDS011;9558;50.178;8.370;2022-11-20T14:43:16;18.83;;;6.78;;
18857;SDS011;9558;50.178;8.370;2022-11-20T14:45:45;11.70;;;4.70;;
18857;SDS011;9558;50.178;8.370;2022-11-20T14:48:15;9.77;;;5.15;;
18857;SDS011;9558;50.178;8.370;2022-11-20T14:50:42;11.43;;;6.25;;
18857;SDS011;9558;50.178;8.370;2022-11-20T14:53:08;10.73;;;7.43;;
18857;SDS011;9558;50.178;8.370;2022-11-20T14:55:35;10.82;;;5.18;;
18857;SDS011;9558;50.178;8.370;2022-11-20T14:58:04;8.38;;;4.30;;
18857;SDS011;9558;50.178;8.370;2022-11-20T15:00:33;11.07;;;4.68;;
18857;SDS011;9558;50.178;8.370;2022-11-20T15:03:02;9.15;;;5.55;;
18857;SDS011;9558;50.178;8.370;2022-11-20T15:05:43;12.52;;;5.38;;
18857;SDS011;9558;50.178;8.370;2022-11-20T15:08:12;8.93;;;4.82;;
18857;SDS011;9558;50.178;8.370;2022-11-20T15:10:44;9.82;;;4.50;;
18857;SDS011;9558;50.178;8.370;2022-11-20T15:13:12;14.43;;;6.85;;
18857;SDS011;9558;50.178;8.370;2022-11-20T15:15:43;10.77;;;5.05;;
18857;SDS011;9558;50.178;8.370;2022-11-20T15:18:13;8.77;;;4.45;;
18857;SDS011;9558;50.178;8.370;2022-11-20T15:20:42;13.63;;;5.40;;
18857;SDS011;9558;50.178;8.370;2022-11-20T15:25:37;5.78;;;4.55;;
18857;SDS011;9558;50.178;8.370;2022-11-20T15:28:04;11.02;;;5.63;;
18857;SDS011;9558;50.178;8.370;2022-11-20T15:30:43;9.25;;;5.35;;
18857;SDS011;9558;50.178;8.370;2022-11-20T15:33:09;22.77;;;5.78;;
18857;SDS011;9558;50.178;8.370;2022-11-20T15:35:36;15.27;;;6.85;;
18857;SDS011;9558;50.178;8.370;2022-11-20T15:38:02;10.32;;;5.97;;
18857;SDS011;9558;50.178;8.370;2022-11-20T15:40:29;13.02;;;4.78;;
18857;SDS011;9558;50.178;8.370;2022-11-20T15:42:57;17.45;;;7.82;;
18857;SDS011;9558;50.178;8.370;2022-11-20T15:45:30;11.25;;;6.47;;
18857;SDS011;9558;50.178;8.370;2022-11-20T15:48:00;17.55;;;6.32;;
18857;SDS011;9558;50.178;8.370;2022-11-20T15:50:29;11.13;;;5.78;;
18857;SDS011;9558;50.178;8.370;2022-11-20T15:53:02;13.93;;;5.57;;
18857;SDS011;9558;50.178;8.370;2022-11-20T15:55:28;18.27;;;6.53;;
18857;SDS011;9558;50.178;8.370;2022-11-20T16:00:22;5.88;;;4.22;;
18857;SDS011;9558;50.178;8.370;2022-11-20T16:02:49;16.73;;;6.38;;
18857;SDS011;9558;50.178;8.370;2022-11-20T16:05:17;9.30;;;4.82;;